Time;durP1;ratioP1;P1;durP2;ratioP2;P2;SDS_P1;SDS_P2;PMS_P1;PMS_P2;Temp;Humidity;BMP_temperature;BMP_pressure;BME280_temperature;BME280_humidity;BME280_pressure;Samples;Min_cycle;Max_cycle;Signal;HPM_P1;HPM_P2
2022/10/02 00:00:25;;;;;;;;;;;21.20;85.10;;;;;;5095662;28;19908;-60
2022/10/02 00:02:57;;;;;;;;;;;21.20;85.00;;;;;;5096066;28;19931;-60
2022/10/02 00:05:43;;;;;;;;;;;21.20;85.00;;;;;;5095712;28;19999;-60
2022/10/02 00:08:12;;;;;;;;;;;21.20;84.80;;;;;;5095867;28;20382;-61
2022/10/02 00:10:43;;;;;;;;;;;21.20;85.00;;;;;;5058908;28;20339;-60
2022/10/02 00:13:27;;;;;;;;;;;21.20;84.90;;;;;;5094557;28;19958;-60
2022/10/02 00:15:53;;;;;;;;;;;21.20;85.00;;;;;;5095645;28;19923;-60
2022/10/02 00:18:22;;;;;;;;;;;21.20;84.80;;;;;;5097417;28;19916;-60
2022/10/02 00:20:54;;;;;;;;;;;21.20;84.90;;;;;;5074759;28;19908;-60
2022/10/02 00:23:26;;;;;;;;;;;21.10;85.00;;;;;;5091297;28;19954;-60
2022/10/02 00:25:57;;;;;;;;;;;21.10;85.20;;;;;;5094194;28;20452;-60
2022/10/02 00:28:34;;;;;;;;;;;21.10;85.20;;;;;;5096041;28;19908;-60
2022/10/02 00:31:06;;;;;;;;;;;21.10;85.30;;;;;;5095310;28;20354;-60
2022/10/02 00:33:50;;;;;;;;;;;21.10;85.40;;;;;;5095539;28;19904;-60
2022/10/02 00:36:15;;;;;;;;;;;21.00;85.30;;;;;;5095891;28;19930;-60
2022/10/02 00:38:52;;;;;;;;;;;21.00;85.40;;;;;;5095919;28;19904;-60
2022/10/02 00:41:33;;;;;;;;;;;21.00;85.40;;;;;;5095591;28;20335;-60
2022/10/02 00:44:04;;;;;;;;;;;21.00;85.50;;;;;;5095470;28;19914;-60
2022/10/02 00:46:33;;;;;;;;;;;20.90;85.50;;;;;;5095018;28;19965;-60
2022/10/02 00:49:14;;;;;;;;;;;20.90;85.50;;;;;;5095285;28;20400;-60
2022/10/02 00:51:54;;;;;;;;;;;21.00;85.40;;;;;;5095297;28;19910;-60
2022/10/02 00:54:38;;;;;;;;;;;21.00;85.30;;;;;;5095585;28;19957;-60
2022/10/02 00:57:07;;;;;;;;;;;21.10;85.10;;;;;;5095200;28;19904;-60
2022/10/02 00:59:51;;;;;;;;;;;21.10;85.00;;;;;;5095134;28;19986;-60
2022/10/02 01:02:25;;;;;;;;;;;21.20;84.90;;;;;;5095418;28;19904;-59
2022/10/02 01:04:51;;;;;;;;;;;21.20;84.80;;;;;;5095087;28;20343;-60
2022/10/02 01:07:16;;;;;;;;;;;21.20;84.60;;;;;;5095630;28;19904;-60
2022/10/02 01:09:43;;;;;;;;;;;21.20;84.70;;;;;;5095186;28;19904;-60
2022/10/02 01:12:09;;;;;;;;;;;21.20;84.70;;;;;;5094899;28;19908;-60
2022/10/02 01:14:36;;;;;;;;;;;21.20;84.80;;;;;;5094773;28;19950;-59
2022/10/02 01:17:02;;;;;;;;;;;21.10;84.70;;;;;;5095075;28;19904;-60
2022/10/02 01:19:38;;;;;;;;;;;21.10;84.80;;;;;;5095110;28;19910;-60
2022/10/02 01:22:15;;;;;;;;;;;21.10;84.80;;;;;;5094751;28;19904;-59
2022/10/02 01:24:46;;;;;;;;;;;21.10;84.90;;;;;;5094877;28;19930;-60
2022/10/02 01:27:11;;;;;;;;;;;21.00;84.90;;;;;;5094965;28;19904;-59
2022/10/02 01:29:37;;;;;;;;;;;21.00;85.00;;;;;;5094911;28;20266;-60
2022/10/02 01:32:02;;;;;;;;;;;21.00;85.10;;;;;;5094874;28;19911;-59
2022/10/02 01:34:28;;;;;;;;;;;21.00;85.10;;;;;;5094511;28;19999;-59
2022/10/02 01:36:54;;;;;;;;;;;21.00;85.10;;;;;;5095167;28;19940;-60
2022/10/02 01:39:21;;;;;;;;;;;21.00;85.20;;;;;;5094859;28;20358;-59
2022/10/02 01:41:46;;;;;;;;;;;21.00;85.20;;;;;;5094443;28;19948;-59
2022/10/02 01:44:13;;;;;;;;;;;21.00;85.20;;;;;;5094354;28;20291;-60
2022/10/02 01:46:56;;;;;;;;;;;20.90;85.10;;;;;;5094541;28;19916;-59
2022/10/02 01:49:40;;;;;;;;;;;21.00;85.30;;;;;;5094571;28;20369;-59
2022/10/02 01:52:08;;;;;;;;;;;20.90;85.30;;;;;;5094215;28;19904;-60
2022/10/02 01:55:06;;;;;;;;;;;20.90;85.30;;;;;;5094239;28;19908;-60
2022/10/02 01:57:51;;;;;;;;;;;20.90;85.30;;;;;;5059521;28;19991;-59
2022/10/02 02:00:18;;;;;;;;;;;21.00;85.20;;;;;;5094469;28;20002;-60
2022/10/02 02:02:56;;;;;;;;;;;21.10;85.10;;;;;;5094319;28;19908;-60
2022/10/02 02:05:31;;;;;;;;;;;21.10;84.80;;;;;;5094173;28;20388;-60
2022/10/02 02:08:02;;;;;;;;;;;21.10;84.60;;;;;;5094303;28;19983;-59
2022/10/02 02:10:37;;;;;;;;;;;21.20;84.50;;;;;;5094370;28;19945;-60
2022/10/02 02:13:08;;;;;;;;;;;21.20;84.80;;;;;;5094285;28;19904;-60
2022/10/02 02:15:37;;;;;;;;;;;21.20;84.60;;;;;;5094167;28;19911;-60
2022/10/02 02:18:10;;;;;;;;;;;21.20;84.60;;;;;;5094443;28;19911;-59
2022/10/02 02:20:42;;;;;;;;;;;21.10;84.60;;;;;;5093941;28;19911;-60
2022/10/02 02:23:11;;;;;;;;;;;21.10;84.70;;;;;;5094283;28;19905;-59
2022/10/02 02:25:38;;;;;;;;;;;21.10;84.60;;;;;;5093715;28;20376;-59
2022/10/02 02:28:06;;;;;;;;;;;21.10;84.70;;;;;;5094129;28;19904;-59
2022/10/02 02:30:34;;;;;;;;;;;21.00;84.70;;;;;;5093729;28;19911;-60
2022/10/02 02:33:10;;;;;;;;;;;21.00;84.80;;;;;;5094091;28;19904;-60
2022/10/02 02:35:38;;;;;;;;;;;21.00;84.90;;;;;;5094098;28;19904;-60
2022/10/02 02:38:17;;;;;;;;;;;21.00;85.00;;;;;;5093823;28;19930;-59
2022/10/02 02:40:45;;;;;;;;;;;21.00;85.10;;;;;;5093957;28;19910;-59
2022/10/02 02:43:15;;;;;;;;;;;21.00;85.30;;;;;;5094038;28;19904;-60
2022/10/02 02:45:50;;;;;;;;;;;20.90;85.30;;;;;;5093473;28;19963;-59
2022/10/02 02:48:24;;;;;;;;;;;20.90;85.20;;;;;;5093836;28;19932;-59
2022/10/02 02:50:52;;;;;;;;;;;20.90;85.30;;;;;;5093792;28;20404;-59
2022/10/02 02:53:27;;;;;;;;;;;20.90;85.30;;;;;;5093898;28;19904;-60
2022/10/02 02:55:57;;;;;;;;;;;20.90;85.30;;;;;;5093755;28;19904;-60
2022/10/02 02:58:28;;;;;;;;;;;20.90;85.30;;;;;;5093839;28;20030;-59
2022/10/02 03:00:53;;;;;;;;;;;20.90;85.10;;;;;;5094185;28;19904;-59
2022/10/02 03:03:19;;;;;;;;;;;21.00;85.10;;;;;;5093541;28;20305;-59
2022/10/02 03:05:47;;;;;;;;;;;21.10;84.90;;;;;;5093334;28;19923;-59
2022/10/02 03:08:19;;;;;;;;;;;21.10;84.70;;;;;;5095165;28;20056;-60
2022/10/02 03:10:54;;;;;;;;;;;21.10;84.50;;;;;;5097290;28;19904;-59
2022/10/02 03:13:31;;;;;;;;;;;21.20;84.60;;;;;;5079329;28;19911;-59
2022/10/02 03:16:15;;;;;;;;;;;21.20;84.50;;;;;;5097268;28;20467;-59
2022/10/02 03:18:55;;;;;;;;;;;21.20;84.60;;;;;;5097217;28;19911;-59
2022/10/02 03:21:24;;;;;;;;;;;21.20;84.70;;;;;;5097340;28;20007;-60
2022/10/02 03:23:50;;;;;;;;;;;21.10;84.70;;;;;;5097253;28;19908;-61
2022/10/02 03:26:38;;;;;;;;;;;21.10;84.80;;;;;;5096963;28;20462;-60
2022/10/02 03:29:07;;;;;;;;;;;21.10;84.90;;;;;;5097285;28;19911;-60
2022/10/02 03:31:33;;;;;;;;;;;21.00;84.90;;;;;;5096895;28;19908;-59
2022/10/02 03:34:00;;;;;;;;;;;21.00;85.00;;;;;;5096969;28;20357;-60
2022/10/02 03:36:26;;;;;;;;;;;21.00;85.50;;;;;;5079002;28;19908;-60
2022/10/02 03:38:54;;;;;;;;;;;21.00;85.10;;;;;;5097071;28;19912;-59
2022/10/02 03:41:20;;;;;;;;;;;21.00;85.20;;;;;;5097057;28;19927;-59
2022/10/02 03:43:45;;;;;;;;;;;21.00;85.20;;;;;;5096727;28;19904;-60
2022/10/02 03:46:11;;;;;;;;;;;20.90;85.30;;;;;;5096766;28;20236;-59
2022/10/02 03:48:36;;;;;;;;;;;20.90;85.30;;;;;;5096864;28;19904;-60
2022/10/02 03:51:02;;;;;;;;;;;20.90;85.20;;;;;;5096833;28;20390;-59
2022/10/02 03:53:33;;;;;;;;;;;20.90;85.30;;;;;;5096702;28;19904;-60
2022/10/02 03:55:59;;;;;;;;;;;20.90;85.40;;;;;;5096745;28;19915;-58
2022/10/02 03:58:25;;;;;;;;;;;20.90;85.30;;;;;;5096648;28;19904;-60
2022/10/02 04:01:09;;;;;;;;;;;20.80;85.40;;;;;;5097045;28;19904;-60
2022/10/02 04:03:37;;;;;;;;;;;20.90;85.30;;;;;;5096208;28;19958;-60
2022/10/02 04:06:12;;;;;;;;;;;21.00;85.20;;;;;;5095991;28;20312;-59
2022/10/02 04:08:54;;;;;;;;;;;21.10;84.90;;;;;;5096159;28;19904;-60
2022/10/02 04:11:29;;;;;;;;;;;21.20;84.70;;;;;;5096316;28;19998;-59
2022/10/02 04:14:01;;;;;;;;;;;21.20;84.40;;;;;;5096075;28;19904;-59
2022/10/02 04:16:41;;;;;;;;;;;21.20;84.30;;;;;;5096008;28;19911;-59
2022/10/02 04:19:27;;;;;;;;;;;21.20;84.30;;;;;;5095757;28;19931;-60
2022/10/02 04:21:55;;;;;;;;;;;21.20;84.30;;;;;;5095941;28;19943;-60
2022/10/02 04:24:29;;;;;;;;;;;21.20;84.40;;;;;;5096196;28;19935;-59
2022/10/02 04:27:14;;;;;;;;;;;21.20;84.50;;;;;;5095641;28;20286;-59
2022/10/02 04:29:46;;;;;;;;;;;21.10;84.50;;;;;;5095845;28;19911;-59
2022/10/02 04:32:16;;;;;;;;;;;21.10;84.60;;;;;;5095624;28;19911;-59
2022/10/02 04:34:41;;;;;;;;;;;21.00;84.70;;;;;;5095894;28;19919;-59
2022/10/02 04:37:10;;;;;;;;;;;21.00;84.60;;;;;;5095939;28;19908;-59
2022/10/02 04:39:48;;;;;;;;;;;21.00;84.80;;;;;;5095776;28;19904;-60
2022/10/02 04:42:29;;;;;;;;;;;21.00;84.90;;;;;;5095589;28;19918;-59
2022/10/02 04:45:00;;;;;;;;;;;20.90;84.90;;;;;;5095941;28;20011;-60
2022/10/02 04:47:29;;;;;;;;;;;20.90;85.00;;;;;;5095561;28;20277;-59
2022/10/02 04:50:13;;;;;;;;;;;20.90;85.00;;;;;;5077451;28;19919;-59
2022/10/02 04:52:44;;;;;;;;;;;20.90;85.10;;;;;;5095278;28;19915;-59
2022/10/02 04:55:12;;;;;;;;;;;20.90;85.20;;;;;;5095476;28;19904;-59
2022/10/02 04:57:50;;;;;;;;;;;20.90;85.30;;;;;;5095741;28;19911;-59
2022/10/02 05:00:20;;;;;;;;;;;20.80;85.20;;;;;;5095095;28;19904;-59
2022/10/02 05:03:04;;;;;;;;;;;20.80;85.30;;;;;;5077172;28;19904;-60
2022/10/02 05:05:32;;;;;;;;;;;20.80;85.20;;;;;;5095081;28;20330;-59
2022/10/02 05:08:13;;;;;;;;;;;20.80;85.30;;;;;;5094935;28;19935;-60
2022/10/02 05:10:41;;;;;;;;;;;20.90;85.30;;;;;;5094992;28;19995;-60
2022/10/02 05:13:09;;;;;;;;;;;20.90;85.10;;;;;;5095192;28;19956;-59
2022/10/02 05:15:44;;;;;;;;;;;21.10;84.90;;;;;;5094790;28;19934;-59
2022/10/02 05:18:24;;;;;;;;;;;21.20;84.70;;;;;;5095147;28;19908;-59
2022/10/02 05:20:56;;;;;;;;;;;21.30;84.30;;;;;;5094849;28;20354;-59
2022/10/02 05:23:42;;;;;;;;;;;21.40;84.10;;;;;;5095231;28;19904;-59
2022/10/02 05:26:08;;;;;;;;;;;21.40;84.00;;;;;;5094667;28;19912;-60
2022/10/02 05:28:52;;;;;;;;;;;21.40;83.90;;;;;;5076693;28;19904;-60
2022/10/02 05:31:20;;;;;;;;;;;21.40;83.90;;;;;;5094229;28;19911;-59
2022/10/02 05:33:49;;;;;;;;;;;21.30;84.00;;;;;;5094811;28;19904;-60
2022/10/02 05:36:26;;;;;;;;;;;21.30;84.30;;;;;;5094819;28;20341;-59
2022/10/02 05:39:01;;;;;;;;;;;21.20;84.10;;;;;;5094771;28;20339;-60
2022/10/02 05:41:45;;;;;;;;;;;21.20;84.50;;;;;;5094754;28;19939;-60
2022/10/02 05:44:10;;;;;;;;;;;21.20;84.60;;;;;;5094581;28;19904;-59
2022/10/02 05:46:40;;;;;;;;;;;21.10;84.70;;;;;;5094055;28;19919;-60
2022/10/02 05:49:21;;;;;;;;;;;21.10;84.80;;;;;;5094492;28;19988;-59
2022/10/02 05:51:52;;;;;;;;;;;21.10;85.10;;;;;;5094173;28;20366;-59
2022/10/02 05:54:26;;;;;;;;;;;21.00;85.10;;;;;;5094886;28;19911;-59
2022/10/02 05:56:55;;;;;;;;;;;21.00;85.30;;;;;;5094565;28;19905;-60
2022/10/02 05:59:23;;;;;;;;;;;21.00;85.30;;;;;;5075985;28;19961;-60
2022/10/02 06:01:49;;;;;;;;;;;21.00;85.30;;;;;;5093997;28;19908;-59
2022/10/02 06:04:29;;;;;;;;;;;20.90;85.30;;;;;;5094282;28;19924;-60
2022/10/02 06:06:56;;;;;;;;;;;20.90;85.30;;;;;;5093864;28;19958;-60
2022/10/02 06:09:21;;;;;;;;;;;20.90;85.30;;;;;;5076063;28;19904;-59
2022/10/02 06:11:54;;;;;;;;;;;20.90;85.30;;;;;;5076009;28;19904;-60
2022/10/02 06:14:26;;;;;;;;;;;21.00;85.40;;;;;;5094160;28;19911;-59
2022/10/02 06:17:12;;;;;;;;;;;21.00;85.20;;;;;;5094179;28;19904;-59
2022/10/02 06:19:41;;;;;;;;;;;21.10;85.10;;;;;;5094111;28;19904;-59
2022/10/02 06:22:11;;;;;;;;;;;21.20;84.80;;;;;;5093549;28;19947;-59
2022/10/02 06:24:38;;;;;;;;;;;21.20;84.60;;;;;;5093941;28;19930;-59
2022/10/02 06:27:08;;;;;;;;;;;21.20;84.40;;;;;;5094034;28;19962;-59
2022/10/02 06:29:38;;;;;;;;;;;21.20;84.50;;;;;;5093869;28;19904;-59
2022/10/02 06:32:03;;;;;;;;;;;21.20;84.50;;;;;;5094032;28;19904;-59
2022/10/02 06:34:29;;;;;;;;;;;21.20;84.60;;;;;;5075459;28;19911;-60
2022/10/02 06:37:02;;;;;;;;;;;21.20;84.50;;;;;;5093946;28;19904;-59
2022/10/02 06:39:27;;;;;;;;;;;21.10;84.70;;;;;;5094416;28;19912;-59
2022/10/02 06:41:53;;;;;;;;;;;21.10;84.80;;;;;;5093774;28;19904;-60
2022/10/02 06:44:26;;;;;;;;;;;21.10;85.10;;;;;;5097324;28;19908;-59
2022/10/02 06:47:07;;;;;;;;;;;21.00;85.10;;;;;;5097875;28;19912;-59
2022/10/02 06:49:35;;;;;;;;;;;21.00;85.30;;;;;;5097929;28;19994;-60
2022/10/02 06:52:06;;;;;;;;;;;21.00;85.20;;;;;;5097976;28;19904;-59
2022/10/02 06:54:50;;;;;;;;;;;21.00;85.30;;;;;;5098023;28;19919;-59
2022/10/02 06:57:27;;;;;;;;;;;20.90;85.30;;;;;;5097857;28;20238;-60
2022/10/02 07:00:02;;;;;;;;;;;20.90;85.40;;;;;;5097893;28;19904;-59
2022/10/02 07:02:31;;;;;;;;;;;20.90;85.50;;;;;;5097739;28;19911;-59
2022/10/02 07:05:06;;;;;;;;;;;20.90;85.50;;;;;;5075817;28;20347;-59
2022/10/02 07:07:35;;;;;;;;;;;20.90;85.50;;;;;;5077363;28;19915;-59
2022/10/02 07:10:06;;;;;;;;;;;20.90;85.60;;;;;;5076893;28;19904;-60
2022/10/02 07:12:58;;;;;;;;;;;20.80;85.60;;;;;;5075977;28;19989;-59
2022/10/02 07:15:29;;;;;;;;;;;20.80;85.60;;;;;;5075900;28;19955;-59
2022/10/02 07:18:06;;;;;;;;;;;20.90;85.50;;;;;;5077240;28;19904;-59
2022/10/02 07:20:33;;;;;;;;;;;20.90;85.40;;;;;;5077096;28;19905;-59
2022/10/02 07:22:58;;;;;;;;;;;21.00;85.30;;;;;;5077201;28;20071;-59
2022/10/02 07:25:33;;;;;;;;;;;21.10;85.10;;;;;;5076528;28;19950;-59
2022/10/02 07:28:09;;;;;;;;;;;21.10;84.90;;;;;;5076864;28;19919;-59
2022/10/02 07:30:39;;;;;;;;;;;21.20;84.80;;;;;;5076858;28;19904;-59
2022/10/02 07:33:10;;;;;;;;;;;21.20;84.80;;;;;;5076729;28;20266;-60
2022/10/02 07:35:55;;;;;;;;;;;21.10;84.70;;;;;;5076817;28;19904;-60
2022/10/02 07:38:42;;;;;;;;;;;21.10;84.90;;;;;;5076588;28;19905;-58
2022/10/02 07:41:26;;;;;;;;;;;21.10;84.90;;;;;;5076701;28;19904;-59
2022/10/02 07:43:52;;;;;;;;;;;21.10;85.00;;;;;;5076696;28;20343;-59
2022/10/02 07:46:20;;;;;;;;;;;21.00;85.00;;;;;;5076544;28;20039;-59
2022/10/02 07:48:49;;;;;;;;;;;21.00;85.00;;;;;;5076249;28;19909;-59
2022/10/02 07:54:10;;;;;;;;;;;21.00;85.10;;;;;;5075696;28;19911;-59
2022/10/02 07:56:36;;;;;;;;;;;21.00;85.20;;;;;;5076241;28;19904;-59
2022/10/02 07:59:10;;;;;;;;;;;20.90;85.30;;;;;;5076382;28;19986;-58
2022/10/02 08:01:37;;;;;;;;;;;20.90;85.30;;;;;;5074931;28;20007;-59
2022/10/02 08:04:10;;;;;;;;;;;20.90;85.30;;;;;;5076858;28;19919;-59
2022/10/02 08:06:36;;;;;;;;;;;20.90;85.30;;;;;;5096153;28;20077;-59
2022/10/02 08:09:07;;;;;;;;;;;20.90;85.50;;;;;;5095996;28;19956;-59
2022/10/02 08:11:36;;;;;;;;;;;20.90;85.60;;;;;;5088281;28;20305;-60
2022/10/02 08:14:07;;;;;;;;;;;20.80;85.50;;;;;;5084380;28;19909;-60
2022/10/02 08:16:36;;;;;;;;;;;20.80;85.50;;;;;;5096199;28;20002;-60
2022/10/02 08:19:03;;;;;;;;;;;20.80;85.50;;;;;;5095613;28;19908;-60
2022/10/02 08:21:31;;;;;;;;;;;20.90;85.50;;;;;;5090193;28;19916;-59
2022/10/02 08:24:01;;;;;;;;;;;20.90;85.40;;;;;;5087838;28;19908;-59
2022/10/02 08:26:33;;;;;;;;;;;21.10;85.20;;;;;;5096742;28;19919;-60
2022/10/02 08:29:04;;;;;;;;;;;21.10;85.00;;;;;;5094616;28;19970;-59
2022/10/02 08:31:30;;;;;;;;;;;21.20;84.90;;;;;;5116540;28;19908;-59
2022/10/02 08:33:56;;;;;;;;;;;21.20;84.80;;;;;;5099358;28;19908;-59
2022/10/02 08:36:48;;;;;;;;;;;21.20;84.60;;;;;;5095666;28;19915;-59
2022/10/02 08:39:27;;;;;;;;;;;21.20;84.70;;;;;;5095555;28;19908;-59
2022/10/02 08:42:05;;;;;;;;;;;21.20;84.70;;;;;;5094857;28;19934;-59
2022/10/02 08:44:43;;;;;;;;;;;21.20;84.70;;;;;;5095324;28;19915;-59
2022/10/02 08:47:33;;;;;;;;;;;21.10;84.60;;;;;;5095507;28;19964;-59
2022/10/02 08:50:18;;;;;;;;;;;21.10;84.80;;;;;;5095340;28;19926;-58
2022/10/02 08:52:44;;;;;;;;;;;21.00;84.90;;;;;;5095363;28;19915;-59
2022/10/02 08:55:21;;;;;;;;;;;21.00;85.00;;;;;;5095049;28;19909;-59
2022/10/02 08:57:51;;;;;;;;;;;21.00;85.30;;;;;;5094625;28;19961;-59
2022/10/02 09:00:16;;;;;;;;;;;21.00;85.70;;;;;;5093518;28;19923;-60
2022/10/02 09:03:01;;;;;;;;;;;21.00;85.20;;;;;;5081620;28;19913;-59
2022/10/02 09:05:44;;;;;;;;;;;21.00;85.40;;;;;;5088700;28;20258;-59
2022/10/02 09:08:28;;;;;;;;;;;21.00;85.40;;;;;;5094695;28;19908;-59
2022/10/02 09:11:09;;;;;;;;;;;21.00;85.50;;;;;;5082273;28;19908;-59
2022/10/02 09:13:55;;;;;;;;;;;21.00;85.60;;;;;;5076230;28;19904;-58
2022/10/02 09:16:31;;;;;;;;;;;20.90;85.50;;;;;;5083751;28;19973;-59
2022/10/02 09:18:59;;;;;;;;;;;20.90;85.50;;;;;;5094796;28;19937;-59
2022/10/02 09:21:25;;;;;;;;;;;20.90;85.70;;;;;;5093808;28;19917;-59
2022/10/02 09:24:02;;;;;;;;;;;20.90;85.70;;;;;;5074248;28;19954;-61
2022/10/02 09:26:35;;;;;;;;;;;20.90;85.60;;;;;;5114604;28;19915;-59
2022/10/02 09:29:01;;;;;;;;;;;20.90;85.40;;;;;;5097711;28;19919;-59
2022/10/02 09:31:41;;;;;;;;;;;21.00;85.40;;;;;;5098715;28;20278;-60
2022/10/02 09:34:07;;;;;;;;;;;21.10;85.20;;;;;;5082426;28;19918;-59
2022/10/02 09:36:35;;;;;;;;;;;21.20;84.80;;;;;;5094305;28;19995;-58
2022/10/02 09:39:13;;;;;;;;;;;21.20;84.60;;;;;;5079488;28;19916;-59
2022/10/02 09:41:58;;;;;;;;;;;21.20;84.40;;;;;;5074217;28;19912;-60
2022/10/02 09:44:36;;;;;;;;;;;21.30;84.50;;;;;;5083818;28;19927;-59
2022/10/02 09:47:15;;;;;;;;;;;21.20;84.40;;;;;;5093941;28;20322;-59
2022/10/02 09:50:02;;;;;;;;;;;21.20;84.60;;;;;;5094380;28;19904;-62
2022/10/02 09:52:44;;;;;;;;;;;21.20;84.60;;;;;;5094052;28;20349;-59
2022/10/02 09:55:16;;;;;;;;;;;21.20;84.60;;;;;;5094213;28;20354;-59
2022/10/02 09:58:08;;;;;;;;;;;21.10;84.60;;;;;;5094150;28;19949;-59
2022/10/02 10:00:52;;;;;;;;;;;21.10;84.90;;;;;;5094465;28;19911;-59
2022/10/02 10:03:27;;;;;;;;;;;21.10;85.00;;;;;;5094368;28;19955;-59
2022/10/02 10:06:11;;;;;;;;;;;21.10;85.20;;;;;;5093760;28;19920;-59
2022/10/02 10:08:39;;;;;;;;;;;21.00;85.20;;;;;;5094174;28;19904;-59
2022/10/02 10:11:28;;;;;;;;;;;21.00;85.20;;;;;;5094165;28;19904;-60
2022/10/02 10:14:12;;;;;;;;;;;21.00;85.40;;;;;;5094004;28;19977;-60
2022/10/02 10:16:40;;;;;;;;;;;21.00;85.40;;;;;;5093859;28;20345;-59
2022/10/02 10:19:24;;;;;;;;;;;21.00;85.40;;;;;;5093579;28;19955;-59
2022/10/02 10:21:55;;;;;;;;;;;21.00;85.40;;;;;;5094054;28;19915;-60
2022/10/02 10:24:30;;;;;;;;;;;21.00;85.40;;;;;;5093783;28;20346;-59
2022/10/02 10:27:15;;;;;;;;;;;21.00;85.50;;;;;;5092707;28;20011;-59
2022/10/02 10:29:56;;;;;;;;;;;20.90;85.50;;;;;;5092003;28;19904;-60
2022/10/02 10:32:25;;;;;;;;;;;20.90;85.60;;;;;;5091994;28;20378;-60
2022/10/02 10:35:02;;;;;;;;;;;21.00;85.60;;;;;;5092776;28;20404;-60
2022/10/02 10:40:46;;;;;;;;;;;21.10;85.20;;;;;;5092636;28;20203;-60
2022/10/02 10:43:11;;;;;;;;;;;21.20;84.90;;;;;;5092470;28;19916;-60
2022/10/02 10:45:57;;;;;;;;;;;21.30;84.70;;;;;;5089916;28;19966;-60
2022/10/02 10:48:31;;;;;;;;;;;21.40;84.60;;;;;;5092051;28;20054;-59
2022/10/02 10:51:15;;;;;;;;;;;21.40;84.50;;;;;;5092216;28;20335;-60
2022/10/02 10:54:07;;;;;;;;;;;21.40;84.40;;;;;;5070499;28;19916;-59
2022/10/02 10:56:48;;;;;;;;;;;21.40;84.50;;;;;;5092165;28;19908;-59
2022/10/02 10:59:14;;;;;;;;;;;21.30;84.50;;;;;;5091939;28;20003;-60
2022/10/02 11:01:45;;;;;;;;;;;21.30;84.50;;;;;;5091875;28;19908;-59
2022/10/02 11:04:35;;;;;;;;;;;21.20;84.60;;;;;;5086892;28;19912;-60
2022/10/02 11:07:10;;;;;;;;;;;21.20;84.80;;;;;;5062990;28;19924;-58
2022/10/02 11:09:38;;;;;;;;;;;21.20;85.00;;;;;;5092070;28;20407;-59
2022/10/02 11:12:13;;;;;;;;;;;21.10;84.90;;;;;;5093176;28;19913;-58
2022/10/02 11:14:50;;;;;;;;;;;21.10;85.20;;;;;;5093139;28;20009;-58
2022/10/02 11:17:35;;;;;;;;;;;21.20;85.20;;;;;;5090415;28;19958;-59
2022/10/02 11:20:07;;;;;;;;;;;21.20;85.20;;;;;;5093436;28;19916;-55
2022/10/02 11:22:51;;;;;;;;;;;21.20;84.60;;;;;;5075655;28;19908;-52
2022/10/02 11:25:20;;;;;;;;;;;21.10;84.50;;;;;;5075506;28;19949;-51
2022/10/02 11:27:51;;;;;;;;;;;21.10;84.80;;;;;;5074893;28;19908;-62
2022/10/02 11:30:19;;;;;;;;;;;21.10;84.80;;;;;;5094772;28;19909;-60
2022/10/02 11:33:03;;;;;;;;;;;21.10;85.40;;;;;;5114877;28;19998;-61
2022/10/02 11:35:31;;;;;;;;;;;21.10;85.40;;;;;;5097834;28;20105;-55
2022/10/02 11:38:15;;;;;;;;;;;21.10;84.70;;;;;;5096802;28;19953;-57
2022/10/02 11:40:59;;;;;;;;;;;21.20;85.00;;;;;;5096496;28;19922;-55
2022/10/02 11:43:41;;;;;;;;;;;21.20;85.00;;;;;;5078448;28;19908;-59
2022/10/02 11:46:07;;;;;;;;;;;21.20;85.00;;;;;;5096329;28;19920;-57
2022/10/02 11:48:52;;;;;;;;;;;21.30;84.60;;;;;;5096282;28;19908;-56
2022/10/02 11:51:35;;;;;;;;;;;21.20;84.50;;;;;;5096208;28;19958;-55
2022/10/02 11:54:22;;;;;;;;;;;21.30;84.40;;;;;;5096927;28;19908;-58
2022/10/02 11:56:59;;;;;;;;;;;21.30;83.90;;;;;;5096398;28;19915;-54
2022/10/02 11:59:30;;;;;;;;;;;21.20;84.40;;;;;;5096257;28;19954;-55
2022/10/02 12:02:15;;;;;;;;;;;21.20;84.40;;;;;;5078157;28;19916;-55
2022/10/02 12:04:48;;;;;;;;;;;21.20;84.40;;;;;;5116383;28;20401;-57
2022/10/02 12:07:22;;;;;;;;;;;21.20;84.40;;;;;;5116442;28;20453;-52
2022/10/02 12:09:53;;;;;;;;;;;21.20;84.70;;;;;;5113247;28;19926;-50
2022/10/02 12:12:34;;;;;;;;;;;21.20;84.10;;;;;;5095975;28;19912;-53
2022/10/02 12:15:08;;;;;;;;;;;21.20;84.40;;;;;;5095811;28;19934;-56
2022/10/02 12:17:55;;;;;;;;;;;21.10;84.50;;;;;;5095815;28;20347;-57
2022/10/02 12:29:04;;;;;;;;;;;21.10;85.10;;;;;;5095740;28;19915;-56
2022/10/02 12:31:39;;;;;;;;;;;21.10;85.30;;;;;;5095816;28;19919;-57
2022/10/02 12:34:04;;;;;;;;;;;21.10;85.40;;;;;;5077549;28;19908;-59
2022/10/02 12:36:33;;;;;;;;;;;21.20;85.50;;;;;;5095343;28;19908;-58
2022/10/02 12:39:01;;;;;;;;;;;21.20;85.50;;;;;;5095716;28;19908;-59
2022/10/02 12:41:36;;;;;;;;;;;21.20;85.30;;;;;;5095051;28;19908;-56
2022/10/02 12:44:20;;;;;;;;;;;21.30;85.20;;;;;;5095371;28;20325;-58
2022/10/02 12:47:04;;;;;;;;;;;21.30;84.90;;;;;;5095313;28;19962;-59
2022/10/02 12:49:33;;;;;;;;;;;21.40;84.90;;;;;;5095806;28;20009;-60
2022/10/02 12:52:07;;;;;;;;;;;21.40;84.90;;;;;;5095455;28;20369;-59
2022/10/02 12:54:51;;;;;;;;;;;21.40;84.70;;;;;;5077182;28;19908;-58
2022/10/02 13:00:15;;;;;;;;;;;21.30;85.10;;;;;;5095108;28;20020;-60
2022/10/02 13:02:40;;;;;;;;;;;21.40;85.10;;;;;;5077029;28;19908;-60
2022/10/02 13:05:25;;;;;;;;;;;21.30;85.10;;;;;;5111151;28;20354;-57
2022/10/02 13:08:23;;;;;;;;;;;21.40;85.20;;;;;;5110245;28;20297;-57
2022/10/02 13:10:56;;;;;;;;;;;21.40;85.20;;;;;;5041225;28;19912;-55
2022/10/02 13:13:44;;;;;;;;;;;21.20;84.60;;;;;;5095177;28;20262;-57
2022/10/02 13:16:20;;;;;;;;;;;21.20;84.60;;;;;;5080800;28;19908;-56
2022/10/02 13:19:14;;;;;;;;;;;21.20;84.70;;;;;;5095406;28;19915;-54
2022/10/02 13:21:40;;;;;;;;;;;21.20;84.80;;;;;;5110502;28;19918;-57
2022/10/02 13:24:06;;;;;;;;;;;21.10;84.70;;;;;;5105441;28;19911;-54
2022/10/02 13:26:41;;;;;;;;;;;21.10;84.80;;;;;;5104358;28;19921;-59
2022/10/02 13:29:18;;;;;;;;;;;21.00;84.90;;;;;;5103557;28;19916;-60
2022/10/02 13:32:12;;;;;;;;;;;21.10;85.20;;;;;;5105916;28;19912;-58
2022/10/02 13:34:49;;;;;;;;;;;21.00;85.20;;;;;;5020746;28;19913;-59
2022/10/02 13:37:30;;;;;;;;;;;21.00;85.10;;;;;;5093340;28;19912;-58
2022/10/02 13:40:11;;;;;;;;;;;21.10;85.10;;;;;;5094139;28;20364;-58
2022/10/02 13:42:55;;;;;;;;;;;21.20;84.90;;;;;;5096960;28;19912;-58
2022/10/02 13:45:21;;;;;;;;;;;21.20;84.70;;;;;;5094372;28;19981;-58
2022/10/02 13:47:46;;;;;;;;;;;21.40;84.30;;;;;;5094150;28;20260;-58
2022/10/02 13:50:17;;;;;;;;;;;21.50;84.10;;;;;;5094433;28;19947;-59
2022/10/02 13:52:52;;;;;;;;;;;21.50;83.90;;;;;;5093800;28;19908;-59
2022/10/02 13:55:24;;;;;;;;;;;21.50;83.90;;;;;;5094251;28;19915;-59
2022/10/02 13:57:50;;;;;;;;;;;21.50;83.90;;;;;;5094264;28;20374;-59
2022/10/02 14:00:34;;;;;;;;;;;21.40;83.90;;;;;;5094135;28;20006;-60
2022/10/02 14:03:10;;;;;;;;;;;21.40;84.00;;;;;;5074247;28;19908;-58
2022/10/02 14:05:48;;;;;;;;;;;21.30;84.00;;;;;;5074059;28;19946;-58
2022/10/02 14:08:16;;;;;;;;;;;21.30;84.70;;;;;;5089633;28;19919;-57
2022/10/02 14:10:45;;;;;;;;;;;21.30;84.30;;;;;;5075979;28;19962;-58
2022/10/02 14:13:19;;;;;;;;;;;21.30;84.40;;;;;;5087500;28;20354;-59
2022/10/02 14:15:59;;;;;;;;;;;21.20;84.40;;;;;;5083901;28;19919;-59
2022/10/02 14:18:40;;;;;;;;;;;21.20;84.50;;;;;;5099466;28;19950;-58
2022/10/02 14:21:14;;;;;;;;;;;21.20;84.50;;;;;;5102118;28;19930;-57
2022/10/02 14:23:54;;;;;;;;;;;21.20;84.50;;;;;;5107539;28;19912;-57
2022/10/02 14:26:25;;;;;;;;;;;21.20;84.70;;;;;;5111885;28;19916;-56
2022/10/02 14:28:57;;;;;;;;;;;21.20;84.70;;;;;;5098378;28;19907;-57
2022/10/02 14:31:25;;;;;;;;;;;21.10;84.80;;;;;;5114337;28;19904;-54
2022/10/02 14:33:58;;;;;;;;;;;21.00;84.30;;;;;;5111747;28;20002;-54
2022/10/02 14:36:30;;;;;;;;;;;20.90;84.40;;;;;;5111948;28;19915;-55
2022/10/02 14:39:11;;;;;;;;;;;20.80;84.90;;;;;;5111818;28;19903;-56
2022/10/02 14:41:56;;;;;;;;;;;20.80;85.00;;;;;;5113726;28;19915;-54
2022/10/02 14:44:38;;;;;;;;;;;20.80;85.00;;;;;;5111718;28;19958;-56
2022/10/02 14:47:20;;;;;;;;;;;20.80;84.90;;;;;;5107047;28;19926;-56
2022/10/02 14:50:09;;;;;;;;;;;20.90;84.80;;;;;;5107276;28;19908;-57
2022/10/02 14:52:35;;;;;;;;;;;21.00;84.60;;;;;;5112467;28;20431;-58
2022/10/02 14:55:19;;;;;;;;;;;21.10;84.50;;;;;;5095252;28;19954;-57
2022/10/02 14:58:03;;;;;;;;;;;21.20;84.40;;;;;;5093635;28;20267;-57
2022/10/02 15:00:49;;;;;;;;;;;21.30;84.20;;;;;;5092210;28;19927;-59
2022/10/02 15:03:26;;;;;;;;;;;21.30;84.10;;;;;;5092073;28;20269;-55
2022/10/02 15:05:58;;;;;;;;;;;21.30;84.10;;;;;;5114975;28;19963;-58
2022/10/02 15:08:42;;;;;;;;;;;21.20;84.20;;;;;;5114009;28;19912;-60
2022/10/02 15:11:18;;;;;;;;;;;21.20;84.20;;;;;;5059639;28;20255;-59
2022/10/02 15:13:45;;;;;;;;;;;21.20;84.40;;;;;;5092679;28;19965;-59